Time;durP1;ratioP1;P1;durP2;ratioP2;P2;SDS_P1;SDS_P2;PMS_P1;PMS_P2;Temp;Humidity;BMP_temperature;BMP_pressure;BME280_temperature;BME280_humidity;BME280_pressure;Samples;Min_cycle;Max_cycle;Signal;HPM_P1;HPM_P2
2023/03/19 00:01:42;;;;;;;;;;;10.30;99.90;;;;;;5036313;28;19966;-70
2023/03/19 00:04:08;;;;;;;;;;;10.30;99.90;;;;;;5003119;28;206556;-70
2023/03/19 00:06:34;;;;;;;;;;;10.20;99.90;;;;;;5070035;28;19931;-69
2023/03/19 00:09:00;;;;;;;;;;;10.20;99.90;;;;;;5010667;28;209390;-69
2023/03/19 00:11:26;;;;;;;;;;;10.20;99.90;;;;;;5052457;28;19924;-69
2023/03/19 00:13:52;;;;;;;;;;;10.20;99.90;;;;;;5025596;28;208887;-69
2023/03/19 00:16:18;;;;;;;;;;;10.10;99.90;;;;;;5059684;28;19924;-69
2023/03/19 00:18:44;;;;;;;;;;;10.10;99.90;;;;;;5017063;28;211432;-70
2023/03/19 00:21:10;;;;;;;;;;;10.10;99.90;;;;;;5074103;28;19924;-69
2023/03/19 00:23:36;;;;;;;;;;;10.10;99.90;;;;;;5066347;28;213808;-69
2023/03/19 00:26:02;;;;;;;;;;;10.10;99.90;;;;;;5038508;28;204317;-69
2023/03/19 00:28:29;;;;;;;;;;;10.10;99.90;;;;;;5079872;28;19939;-69
2023/03/19 00:30:55;;;;;;;;;;;10.10;99.90;;;;;;5021343;28;206764;-69
2023/03/19 00:33:21;;;;;;;;;;;10.10;99.90;;;;;;5081784;28;20202;-69
2023/03/19 00:35:47;;;;;;;;;;;10.10;99.90;;;;;;5028033;28;206806;-70
2023/03/19 00:38:13;;;;;;;;;;;10.20;99.90;;;;;;5077395;28;19920;-70
2023/03/19 00:40:39;;;;;;;;;;;10.20;99.90;;;;;;5005022;28;157718;-70
2023/03/19 00:43:05;;;;;;;;;;;10.20;99.90;;;;;;5060517;28;19920;-70
2023/03/19 00:45:31;;;;;;;;;;;10.20;99.90;;;;;;5027393;28;210324;-69
2023/03/19 00:47:57;;;;;;;;;;;10.20;99.90;;;;;;5093027;28;19973;-70
2023/03/19 00:50:24;;;;;;;;;;;10.20;99.90;;;;;;5027823;27;206984;-70
2023/03/19 00:52:51;;;;;;;;;;;10.30;99.90;;;;;;5066999;28;19935;-70
2023/03/19 00:55:17;;;;;;;;;;;10.30;99.90;;;;;;5013446;28;208810;-69
2023/03/19 00:57:43;;;;;;;;;;;10.30;99.90;;;;;;5063980;28;19928;-69
2023/03/19 01:00:09;;;;;;;;;;;10.30;99.90;;;;;;4998162;28;225233;-70
2023/03/19 01:02:35;;;;;;;;;;;10.20;99.90;;;;;;5081032;27;20397;-70
2023/03/19 01:05:01;;;;;;;;;;;10.30;99.90;;;;;;5003283;28;218066;-70
2023/03/19 01:07:27;;;;;;;;;;;10.30;99.90;;;;;;5054666;28;19963;-70
2023/03/19 01:09:53;;;;;;;;;;;10.30;99.90;;;;;;5012928;28;210417;-69
2023/03/19 01:12:19;;;;;;;;;;;10.30;99.90;;;;;;5053770;28;19920;-70
2023/03/19 01:14:45;;;;;;;;;;;10.30;99.90;;;;;;5002540;28;209358;-70
2023/03/19 01:17:11;;;;;;;;;;;10.30;99.90;;;;;;5065546;28;19921;-70
2023/03/19 01:19:37;;;;;;;;;;;10.30;99.90;;;;;;4995308;28;181742;-70
2023/03/19 01:22:03;;;;;;;;;;;10.30;99.90;;;;;;5033503;28;19924;-70
2023/03/19 01:24:30;;;;;;;;;;;10.30;99.90;;;;;;5014898;28;109489;-70
2023/03/19 01:26:55;;;;;;;;;;;10.40;99.90;;;;;;5054137;28;19943;-70
2023/03/19 01:29:21;;;;;;;;;;;10.40;99.90;;;;;;5002982;28;207043;-70
2023/03/19 01:31:47;;;;;;;;;;;10.40;99.90;;;;;;5066902;28;19920;-69
2023/03/19 01:34:13;;;;;;;;;;;10.40;99.90;;;;;;5003821;28;209011;-69
2023/03/19 01:36:39;;;;;;;;;;;10.40;99.90;;;;;;5055975;28;20304;-69
2023/03/19 01:39:05;;;;;;;;;;;10.40;99.90;;;;;;5029292;28;206324;-69
2023/03/19 01:41:31;;;;;;;;;;;10.40;99.90;;;;;;5087805;28;19970;-68
2023/03/19 01:43:57;;;;;;;;;;;10.50;99.90;;;;;;5018868;28;208871;-68
2023/03/19 01:46:29;;;;;;;;;;;10.40;99.90;;;;;;5050959;28;19932;-68
2023/03/19 01:49:05;;;;;;;;;;;10.40;99.90;;;;;;4982149;28;208347;-68
2023/03/19 01:51:37;;;;;;;;;;;10.40;99.90;;;;;;5032984;28;19931;-67
2023/03/19 01:54:05;;;;;;;;;;;10.40;99.90;;;;;;4996214;28;217835;-70
2023/03/19 01:56:32;;;;;;;;;;;10.40;99.90;;;;;;5034506;28;20417;-68
2023/03/19 01:59:01;;;;;;;;;;;10.30;99.90;;;;;;5001917;28;203444;-67
2023/03/19 02:01:28;;;;;;;;;;;10.30;99.90;;;;;;5015760;28;19928;-68
2023/03/19 02:03:55;;;;;;;;;;;10.30;99.90;;;;;;4989733;28;209133;-69
2023/03/19 02:06:22;;;;;;;;;;;10.20;99.90;;;;;;5041795;28;19925;-69
2023/03/19 02:08:48;;;;;;;;;;;10.20;99.90;;;;;;4996766;28;209090;-69
2023/03/19 02:11:15;;;;;;;;;;;10.20;99.90;;;;;;5057340;28;19928;-69
2023/03/19 02:13:42;;;;;;;;;;;10.10;99.90;;;;;;5009938;28;211629;-69
2023/03/19 02:16:08;;;;;;;;;;;10.10;99.90;;;;;;5042745;28;19943;-70
2023/03/19 02:18:35;;;;;;;;;;;10.10;99.90;;;;;;5047585;28;213493;-69
2023/03/19 02:21:03;;;;;;;;;;;10.10;99.90;;;;;;5001989;28;202780;-70
2023/03/19 02:23:33;;;;;;;;;;;10.00;99.90;;;;;;5058528;28;19939;-70
2023/03/19 02:26:07;;;;;;;;;;;10.10;99.90;;;;;;4979837;28;274540;-70
2023/03/19 02:28:35;;;;;;;;;;;10.10;99.90;;;;;;5078967;28;19927;-70
2023/03/19 02:31:01;;;;;;;;;;;10.00;99.90;;;;;;4997321;28;187342;-70
2023/03/19 02:33:27;;;;;;;;;;;10.00;99.90;;;;;;5054858;28;19925;-69
2023/03/19 02:35:53;;;;;;;;;;;10.00;99.90;;;;;;4981589;28;206761;-70
2023/03/19 02:38:21;;;;;;;;;;;10.00;99.90;;;;;;5056897;28;20429;-70
2023/03/19 02:40:50;;;;;;;;;;;10.00;99.90;;;;;;4963787;28;208127;-69
2023/03/19 02:43:16;;;;;;;;;;;10.00;99.90;;;;;;5059617;28;19921;-70
2023/03/19 02:45:42;;;;;;;;;;;10.00;99.90;;;;;;4974615;28;208341;-69
2023/03/19 02:48:08;;;;;;;;;;;10.00;99.90;;;;;;5061889;28;19999;-69
2023/03/19 02:50:34;;;;;;;;;;;10.00;99.90;;;;;;4985126;28;208094;-69
2023/03/19 02:53:00;;;;;;;;;;;10.00;99.90;;;;;;5058763;28;20000;-69
2023/03/19 02:55:26;;;;;;;;;;;10.00;99.90;;;;;;5046818;27;208900;-69
2023/03/19 02:57:53;;;;;;;;;;;10.00;99.90;;;;;;5080738;28;20581;-69
2023/03/19 03:00:19;;;;;;;;;;;10.00;99.90;;;;;;5020702;28;210227;-68
2023/03/19 03:02:45;;;;;;;;;;;10.00;99.90;;;;;;5058800;28;19936;-69
2023/03/19 03:05:12;;;;;;;;;;;10.00;99.90;;;;;;4992587;28;207095;-68
2023/03/19 03:07:39;;;;;;;;;;;10.00;99.90;;;;;;5055751;28;19929;-68
2023/03/19 03:10:05;;;;;;;;;;;10.00;99.90;;;;;;4999915;28;211566;-68
2023/03/19 03:12:31;;;;;;;;;;;10.00;99.90;;;;;;5057405;28;19924;-68
2023/03/19 03:14:57;;;;;;;;;;;10.00;99.90;;;;;;5014143;28;211480;-68
2023/03/19 03:17:23;;;;;;;;;;;10.00;99.90;;;;;;5068829;28;20000;-68
2023/03/19 03:19:49;;;;;;;;;;;10.00;99.90;;;;;;5015179;28;208952;-68
2023/03/19 03:22:15;;;;;;;;;;;10.00;99.90;;;;;;5072146;28;20455;-68
2023/03/19 03:24:41;;;;;;;;;;;10.00;99.90;;;;;;5019648;28;207986;-68
2023/03/19 03:27:07;;;;;;;;;;;10.00;99.90;;;;;;5061695;28;19924;-68
2023/03/19 03:29:35;;;;;;;;;;;10.00;99.90;;;;;;5014348;28;210116;-68
2023/03/19 03:32:01;;;;;;;;;;;10.00;99.90;;;;;;5079798;28;19935;-67
2023/03/19 03:34:27;;;;;;;;;;;10.00;99.90;;;;;;5031161;28;200856;-67
2023/03/19 03:36:53;;;;;;;;;;;10.00;99.90;;;;;;5087839;28;19974;-67
2023/03/19 03:39:19;;;;;;;;;;;10.00;99.90;;;;;;5017743;28;215650;-68
2023/03/19 03:41:45;;;;;;;;;;;10.10;99.90;;;;;;5076497;28;19932;-67
2023/03/19 03:44:11;;;;;;;;;;;10.10;99.90;;;;;;5014486;28;211601;-69
2023/03/19 03:46:37;;;;;;;;;;;10.00;99.90;;;;;;5054595;28;20256;-69
2023/03/19 03:49:03;;;;;;;;;;;10.00;99.90;;;;;;5000324;28;211412;-69
2023/03/19 03:51:29;;;;;;;;;;;10.00;99.90;;;;;;5057425;28;20399;-69
2023/03/19 03:53:55;;;;;;;;;;;10.00;99.90;;;;;;5005984;28;214889;-69
2023/03/19 03:56:21;;;;;;;;;;;10.00;99.90;;;;;;5070177;28;19924;-69
2023/03/19 03:58:47;;;;;;;;;;;9.90;99.90;;;;;;5007613;28;208976;-69
2023/03/19 04:01:17;;;;;;;;;;;10.00;99.90;;;;;;5071000;28;19921;-70
2023/03/19 04:03:43;;;;;;;;;;;10.00;99.90;;;;;;5001360;28;226954;-70
2023/03/19 04:06:14;;;;;;;;;;;9.90;99.90;;;;;;5002165;28;20420;-70
2023/03/19 04:08:41;;;;;;;;;;;9.90;99.90;;;;;;5017826;28;209931;-70
2023/03/19 04:11:07;;;;;;;;;;;9.90;99.90;;;;;;5048116;28;19924;-69
2023/03/19 04:13:35;;;;;;;;;;;10.00;99.90;;;;;;5062437;28;19920;-70
2023/03/19 04:16:03;;;;;;;;;;;9.90;99.90;;;;;;4995988;28;206441;-69
2023/03/19 04:18:29;;;;;;;;;;;10.00;99.90;;;;;;5058949;28;19924;-69
2023/03/19 04:20:56;;;;;;;;;;;9.90;99.90;;;;;;5010693;28;209057;-69
2023/03/19 04:23:22;;;;;;;;;;;10.00;99.90;;;;;;5070621;28;19925;-70
2023/03/19 04:25:48;;;;;;;;;;;10.00;99.90;;;;;;5018111;28;26027;-70
2023/03/19 04:28:14;;;;;;;;;;;10.00;99.90;;;;;;5095510;28;19925;-70
2023/03/19 04:30:40;;;;;;;;;;;9.90;99.90;;;;;;5055320;27;209447;-70
2023/03/19 04:33:06;;;;;;;;;;;9.90;99.90;;;;;;5076532;28;19932;-70
2023/03/19 04:35:32;;;;;;;;;;;9.90;99.90;;;;;;5021848;28;208817;-68
2023/03/19 04:37:57;;;;;;;;;;;9.90;99.90;;;;;;5074379;28;19925;-70
2023/03/19 04:40:24;;;;;;;;;;;9.90;99.90;;;;;;5009861;28;210138;-69
2023/03/19 04:42:50;;;;;;;;;;;9.80;99.90;;;;;;5060672;28;19935;-69
2023/03/19 04:45:16;;;;;;;;;;;9.80;99.90;;;;;;4998072;28;209257;-70
2023/03/19 04:47:41;;;;;;;;;;;9.70;99.90;;;;;;5054490;28;20378;-69
2023/03/19 04:50:08;;;;;;;;;;;9.70;99.90;;;;;;4994001;28;208198;-69
2023/03/19 04:52:36;;;;;;;;;;;9.60;99.90;;;;;;5053093;28;19925;-69
2023/03/19 04:55:03;;;;;;;;;;;9.60;99.90;;;;;;5011676;28;209499;-69
2023/03/19 04:57:28;;;;;;;;;;;9.50;99.90;;;;;;5078568;28;20349;-69
2023/03/19 04:59:55;;;;;;;;;;;9.50;99.90;;;;;;5018917;28;208852;-69
2023/03/19 05:02:20;;;;;;;;;;;9.40;99.90;;;;;;5059261;28;19928;-69
2023/03/19 05:04:46;;;;;;;;;;;9.40;99.90;;;;;;5012566;28;209435;-70
2023/03/19 05:07:12;;;;;;;;;;;9.40;99.90;;;;;;5073232;28;19928;-69
2023/03/19 05:09:39;;;;;;;;;;;9.30;99.90;;;;;;5019665;28;211955;-69
2023/03/19 05:12:05;;;;;;;;;;;9.30;99.90;;;;;;5081927;28;19929;-69
2023/03/19 05:14:31;;;;;;;;;;;9.20;99.90;;;;;;5020862;28;208875;-69
2023/03/19 05:16:57;;;;;;;;;;;9.20;99.90;;;;;;5059670;28;19928;-69
2023/03/19 05:19:24;;;;;;;;;;;9.20;99.90;;;;;;5012254;28;214692;-69
2023/03/19 05:21:50;;;;;;;;;;;9.10;99.90;;;;;;5075345;28;19955;-70
2023/03/19 05:24:15;;;;;;;;;;;9.10;99.90;;;;;;5021530;28;206336;-70
2023/03/19 05:26:42;;;;;;;;;;;9.10;99.90;;;;;;5067131;28;19930;-70
2023/03/19 05:29:09;;;;;;;;;;;9.10;99.90;;;;;;5022952;28;208705;-70
2023/03/19 05:31:36;;;;;;;;;;;9.10;99.90;;;;;;5075522;28;19928;-69
2023/03/19 05:34:03;;;;;;;;;;;9.00;99.90;;;;;;5023724;28;212062;-70
2023/03/19 05:36:28;;;;;;;;;;;9.00;99.90;;;;;;5080290;28;19939;-71
2023/03/19 05:38:55;;;;;;;;;;;9.00;99.90;;;;;;5029713;28;209720;-71
2023/03/19 05:41:20;;;;;;;;;;;8.90;99.90;;;;;;5048328;28;19928;-70
2023/03/19 05:43:46;;;;;;;;;;;8.90;99.90;;;;;;5019613;28;208726;-71
2023/03/19 05:46:12;;;;;;;;;;;8.90;99.90;;;;;;5076144;28;20373;-69
2023/03/19 05:48:38;;;;;;;;;;;8.80;99.90;;;;;;5046843;28;211387;-70
2023/03/19 05:51:04;;;;;;;;;;;8.80;99.90;;;;;;5008722;28;206997;-70
2023/03/19 05:53:30;;;;;;;;;;;8.80;99.90;;;;;;5075167;28;20355;-70
2023/03/19 05:55:56;;;;;;;;;;;8.70;99.90;;;;;;5045955;28;232546;-69
2023/03/19 05:58:22;;;;;;;;;;;8.70;99.90;;;;;;5078089;28;20018;-70
2023/03/19 06:00:48;;;;;;;;;;;8.70;99.90;;;;;;5013328;28;211718;-70
2023/03/19 06:03:14;;;;;;;;;;;8.70;99.90;;;;;;5060780;28;20412;-70
2023/03/19 06:05:40;;;;;;;;;;;8.70;99.90;;;;;;4991577;28;206017;-69
2023/03/19 06:08:06;;;;;;;;;;;8.60;99.90;;;;;;5057049;28;19928;-69
2023/03/19 06:10:35;;;;;;;;;;;8.60;99.90;;;;;;4987074;28;213881;-70
2023/03/19 06:13:01;;;;;;;;;;;8.60;99.90;;;;;;5057348;28;19932;-70
2023/03/19 06:15:26;;;;;;;;;;;8.50;99.90;;;;;;5027513;28;206939;-70
2023/03/19 06:17:52;;;;;;;;;;;8.60;99.90;;;;;;5067047;28;19928;-70
2023/03/19 06:20:18;;;;;;;;;;;8.60;99.90;;;;;;5012673;28;209105;-70
2023/03/19 06:22:44;;;;;;;;;;;8.60;99.90;;;;;;5058714;28;20626;-68
2023/03/19 06:25:10;;;;;;;;;;;8.70;99.90;;;;;;5011274;28;210373;-70
2023/03/19 06:27:36;;;;;;;;;;;8.80;99.90;;;;;;5083249;28;19924;-69
2023/03/19 06:30:02;;;;;;;;;;;8.90;99.90;;;;;;4993949;28;206797;-70
2023/03/19 06:32:29;;;;;;;;;;;8.90;99.90;;;;;;5056119;28;19920;-70
2023/03/19 06:34:55;;;;;;;;;;;9.00;99.90;;;;;;5014510;28;227553;-70
2023/03/19 06:37:21;;;;;;;;;;;9.00;99.90;;;;;;5060695;28;19932;-70
2023/03/19 06:39:48;;;;;;;;;;;9.10;99.90;;;;;;4999900;28;205987;-71
2023/03/19 06:42:14;;;;;;;;;;;9.10;99.90;;;;;;5052733;28;19921;-69
2023/03/19 06:44:40;;;;;;;;;;;9.10;99.90;;;;;;5001497;28;208170;-69
2023/03/19 06:47:07;;;;;;;;;;;9.00;99.90;;;;;;5065055;28;19924;-70
2023/03/19 06:49:33;;;;;;;;;;;9.00;99.90;;;;;;5006451;28;211763;-70
2023/03/19 06:51:59;;;;;;;;;;;9.00;99.90;;;;;;5059828;28;19925;-70
2023/03/19 06:54:25;;;;;;;;;;;9.00;99.90;;;;;;5017122;28;208316;-70
2023/03/19 06:56:51;;;;;;;;;;;9.00;99.90;;;;;;5080537;28;19920;-70
2023/03/19 06:59:17;;;;;;;;;;;9.10;99.90;;;;;;5025420;28;208665;-69
2023/03/19 07:01:43;;;;;;;;;;;9.00;99.90;;;;;;5077684;28;19928;-69
2023/03/19 07:04:09;;;;;;;;;;;9.10;99.90;;;;;;5016558;27;208661;-70
2023/03/19 07:06:35;;;;;;;;;;;9.10;99.90;;;;;;5104664;27;19936;-70
2023/03/19 07:09:02;;;;;;;;;;;9.20;99.90;;;;;;5013873;28;208550;-71
2023/03/19 07:11:28;;;;;;;;;;;9.20;99.90;;;;;;5046735;28;19952;-70
2023/03/19 07:13:53;;;;;;;;;;;9.30;99.90;;;;;;5003533;28;209360;-72
2023/03/19 07:16:19;;;;;;;;;;;9.30;99.90;;;;;;5058682;28;21115;-70
2023/03/19 07:18:45;;;;;;;;;;;9.30;99.90;;;;;;5012633;28;208496;-70
2023/03/19 07:21:11;;;;;;;;;;;9.40;99.90;;;;;;5066494;28;20321;-70
2023/03/19 07:23:37;;;;;;;;;;;9.50;99.90;;;;;;5067771;28;209698;-70
2023/03/19 07:26:03;;;;;;;;;;;9.50;99.90;;;;;;5000804;28;36672;-70
2023/03/19 07:28:29;;;;;;;;;;;9.60;99.90;;;;;;5066872;28;20054;-71
2023/03/19 07:30:55;;;;;;;;;;;9.60;99.90;;;;;;5016593;28;209206;-71
2023/03/19 07:33:21;;;;;;;;;;;9.60;99.90;;;;;;5080646;28;19924;-71
2023/03/19 07:35:47;;;;;;;;;;;9.70;99.90;;;;;;4978652;28;209874;-71
2023/03/19 07:38:13;;;;;;;;;;;9.70;99.90;;;;;;5059474;28;19964;-70
2023/03/19 07:40:40;;;;;;;;;;;9.70;99.90;;;;;;4994905;28;209760;-70
2023/03/19 07:43:06;;;;;;;;;;;9.80;99.90;;;;;;5075700;28;19929;-70
2023/03/19 07:45:31;;;;;;;;;;;9.90;99.90;;;;;;4998777;28;214954;-70
2023/03/19 07:48:00;;;;;;;;;;;9.90;99.90;;;;;;5080878;28;19924;-70
2023/03/19 07:50:26;;;;;;;;;;;10.00;99.90;;;;;;5018515;28;211017;-69
2023/03/19 07:52:52;;;;;;;;;;;10.00;99.90;;;;;;5078848;28;19920;-70
2023/03/19 07:55:18;;;;;;;;;;;10.00;99.90;;;;;;5000051;28;206080;-70
2023/03/19 07:57:44;;;;;;;;;;;10.10;99.90;;;;;;5040774;28;19947;-70
2023/03/19 08:00:10;;;;;;;;;;;10.10;99.90;;;;;;5019922;28;206417;-70
2023/03/19 08:02:36;;;;;;;;;;;10.20;99.90;;;;;;5081227;28;19923;-70
2023/03/19 08:05:03;;;;;;;;;;;10.30;99.90;;;;;;5019583;27;224042;-70
2023/03/19 08:07:29;;;;;;;;;;;10.40;99.90;;;;;;5073512;27;19928;-70
2023/03/19 08:09:57;;;;;;;;;;;10.50;99.90;;;;;;5040764;28;117145;-70
2023/03/19 08:12:23;;;;;;;;;;;10.60;99.90;;;;;;5041624;28;19920;-69
2023/03/19 08:14:49;;;;;;;;;;;10.70;99.90;;;;;;4997804;28;206624;-70
2023/03/19 08:17:16;;;;;;;;;;;10.80;99.90;;;;;;5053988;28;20019;-70
2023/03/19 08:19:42;;;;;;;;;;;10.80;99.90;;;;;;5021001;28;208492;-70
2023/03/19 08:22:08;;;;;;;;;;;10.90;99.90;;;;;;5084538;28;19924;-69
2023/03/19 08:24:34;;;;;;;;;;;11.10;99.90;;;;;;5013150;28;209879;-70
2023/03/19 08:27:00;;;;;;;;;;;11.50;99.90;;;;;;5053105;28;20023;-70
2023/03/19 08:29:26;;;;;;;;;;;12.10;99.90;;;;;;5015947;28;206595;-71
2023/03/19 08:31:53;;;;;;;;;;;12.40;99.90;;;;;;5069985;28;20069;-71
2023/03/19 08:34:19;;;;;;;;;;;12.80;99.90;;;;;;5020242;28;209462;-71
2023/03/19 08:36:45;;;;;;;;;;;12.60;99.90;;;;;;5027269;28;19937;-70
2023/03/19 08:39:11;;;;;;;;;;;12.30;99.90;;;;;;5000172;28;261938;-70
2023/03/19 08:41:37;;;;;;;;;;;12.20;99.90;;;;;;5041585;28;20014;-71
2023/03/19 08:44:03;;;;;;;;;;;12.00;99.90;;;;;;5017866;28;206836;-70
2023/03/19 08:46:29;;;;;;;;;;;11.90;99.90;;;;;;5042261;28;19921;-70
2023/03/19 08:48:55;;;;;;;;;;;11.80;99.90;;;;;;5003382;28;215510;-72
2023/03/19 08:51:24;;;;;;;;;;;11.70;99.90;;;;;;5065914;28;19965;-71
2023/03/19 08:53:51;;;;;;;;;;;11.60;99.90;;;;;;5016596;28;237570;-72
2023/03/19 08:56:17;;;;;;;;;;;11.50;99.90;;;;;;5034885;28;19925;-72
2023/03/19 08:58:43;;;;;;;;;;;11.40;99.90;;;;;;5016735;28;208430;-72
2023/03/19 09:01:10;;;;;;;;;;;11.40;99.90;;;;;;5019245;28;19920;-72
2023/03/19 09:03:37;;;;;;;;;;;11.30;99.90;;;;;;5044087;28;209736;-71
2023/03/19 09:06:04;;;;;;;;;;;11.40;99.90;;;;;;5023853;28;273494;-73
2023/03/19 09:08:30;;;;;;;;;;;11.40;99.90;;;;;;5058605;28;19925;-71
2023/03/19 09:10:56;;;;;;;;;;;11.50;99.90;;;;;;4964136;28;207933;-73
2023/03/19 09:13:23;;;;;;;;;;;11.50;99.90;;;;;;5057001;28;19929;-73
2023/03/19 09:15:49;;;;;;;;;;;11.60;99.90;;;;;;5018798;28;206021;-73
2023/03/19 09:18:15;;;;;;;;;;;11.80;99.90;;;;;;5060441;28;19925;-73
2023/03/19 09:20:42;;;;;;;;;;;11.90;99.90;;;;;;5002743;28;207034;-72
2023/03/19 09:23:08;;;;;;;;;;;12.10;99.90;;;;;;5083485;28;19927;-72
2023/03/19 09:25:34;;;;;;;;;;;12.30;99.90;;;;;;4999487;28;211605;-72
2023/03/19 09:28:00;;;;;;;;;;;12.30;99.90;;;;;;5061361;28;20408;-72
2023/03/19 09:30:26;;;;;;;;;;;12.70;99.90;;;;;;4999563;28;208727;-72
2023/03/19 09:32:52;;;;;;;;;;;13.00;99.90;;;;;;5042218;28;19927;-72
2023/03/19 09:35:18;;;;;;;;;;;13.60;99.90;;;;;;5015327;28;210385;-72
2023/03/19 09:37:44;;;;;;;;;;;13.50;99.90;;;;;;5063749;28;19921;-72
2023/03/19 09:40:19;;;;;;;;;;;14.30;99.90;;;;;;4993549;28;97102;-72
2023/03/19 09:42:51;;;;;;;;;;;14.00;99.90;;;;;;5064387;28;20390;-72
2023/03/19 09:45:18;;;;;;;;;;;13.80;99.90;;;;;;4984263;28;208184;-72
2023/03/19 09:47:50;;;;;;;;;;;13.50;99.90;;;;;;5059839;28;19928;-72
2023/03/19 09:50:18;;;;;;;;;;;13.40;99.90;;;;;;4986754;28;209845;-72
2023/03/19 09:52:44;;;;;;;;;;;13.30;99.90;;;;;;5075893;28;19931;-72
2023/03/19 09:55:17;;;;;;;;;;;13.10;99.90;;;;;;5014975;28;213633;-72
2023/03/19 09:57:44;;;;;;;;;;;12.90;99.90;;;;;;5057153;28;20401;-71
2023/03/19 10:00:16;;;;;;;;;;;12.80;99.90;;;;;;5029873;28;211851;-72
2023/03/19 10:02:42;;;;;;;;;;;12.70;99.90;;;;;;5086001;28;19920;-73
2023/03/19 10:05:22;;;;;;;;;;;12.60;99.90;;;;;;5012230;28;244638;-72
2023/03/19 10:07:54;;;;;;;;;;;12.60;99.90;;;;;;5082857;28;20325;-73
2023/03/19 10:10:21;;;;;;;;;;;12.50;99.90;;;;;;4980011;28;151148;-72
2023/03/19 10:12:54;;;;;;;;;;;12.60;99.90;;;;;;5059504;28;19939;-72
2023/03/19 10:15:23;;;;;;;;;;;12.70;99.90;;;;;;5018985;28;221548;-72
2023/03/19 10:18:03;;;;;;;;;;;12.60;99.90;;;;;;5062038;28;20365;-72
2023/03/19 10:20:31;;;;;;;;;;;12.60;99.90;;;;;;5012463;28;208901;-72
2023/03/19 10:23:20;;;;;;;;;;;12.60;99.90;;;;;;5064727;28;19925;-73
2023/03/19 10:25:46;;;;;;;;;;;12.50;99.90;;;;;;5004115;28;207113;-73
2023/03/19 10:28:17;;;;;;;;;;;12.60;99.90;;;;;;5067201;28;19924;-73
2023/03/19 10:30:46;;;;;;;;;;;12.60;99.90;;;;;;5018655;28;211727;-73
2023/03/19 10:33:23;;;;;;;;;;;12.70;99.90;;;;;;5083923;28;19927;-73
2023/03/19 10:35:57;;;;;;;;;;;12.70;99.90;;;;;;5014415;28;209281;-74
2023/03/19 10:38:24;;;;;;;;;;;12.90;99.90;;;;;;5067470;28;19945;-73
2023/03/19 10:41:09;;;;;;;;;;;12.80;99.90;;;;;;5005705;28;224269;-74
2023/03/19 10:43:35;;;;;;;;;;;12.80;99.90;;;;;;5027311;28;208957;-74
2023/03/19 10:46:01;;;;;;;;;;;12.80;99.90;;;;;;5031188;28;26895;-73
2023/03/19 10:48:28;;;;;;;;;;;12.90;99.90;;;;;;5042294;28;19929;-72
2023/03/19 10:50:54;;;;;;;;;;;12.90;99.90;;;;;;5008148;28;209018;-71
2023/03/19 10:53:36;;;;;;;;;;;12.90;99.90;;;;;;5079113;28;21341;-73
2023/03/19 10:56:04;;;;;;;;;;;12.90;99.90;;;;;;5017012;28;91039;-72
2023/03/19 10:58:31;;;;;;;;;;;12.80;99.90;;;;;;5057000;28;20385;-72
2023/03/19 11:01:01;;;;;;;;;;;12.80;99.90;;;;;;4972954;28;199079;-71
2023/03/19 11:03:27;;;;;;;;;;;13.00;99.90;;;;;;5040732;28;19928;-71
2023/03/19 11:06:02;;;;;;;;;;;13.10;99.90;;;;;;4997984;28;206688;-71
2023/03/19 11:08:28;;;;;;;;;;;13.40;99.90;;;;;;5090009;27;19924;-71
2023/03/19 11:10:54;;;;;;;;;;;13.30;99.90;;;;;;4992080;28;206495;-72
2023/03/19 11:13:24;;;;;;;;;;;13.20;99.90;;;;;;5058649;28;19920;-72
2023/03/19 11:15:52;;;;;;;;;;;13.20;99.90;;;;;;5014389;28;217732;-72
2023/03/19 11:18:22;;;;;;;;;;;13.10;99.90;;;;;;5058354;28;19928;-73
2023/03/19 11:20:51;;;;;;;;;;;13.60;99.90;;;;;;5026600;28;206496;-72
2023/03/19 11:23:19;;;;;;;;;;;13.90;99.90;;;;;;5064023;28;19924;-72
2023/03/19 11:25:52;;;;;;;;;;;13.90;99.90;;;;;;5033503;28;128170;-73
2023/03/19 11:28:24;;;;;;;;;;;13.70;99.90;;;;;;5080590;28;19929;-72
2023/03/19 11:31:02;;;;;;;;;;;13.30;99.90;;;;;;5014281;28;206234;-73
2023/03/19 11:33:28;;;;;;;;;;;13.30;99.90;;;;;;5062165;28;19928;-72
2023/03/19 11:36:13;;;;;;;;;;;13.50;99.90;;;;;;4988256;28;207864;-72
2023/03/19 11:38:42;;;;;;;;;;;13.80;99.90;;;;;;5017317;28;211518;-72
2023/03/19 11:41:17;;;;;;;;;;;13.80;99.90;;;;;;5082140;27;19920;-73
2023/03/19 11:43:45;;;;;;;;;;;14.30;99.90;;;;;;5020417;28;211742;-72
2023/03/19 11:46:41;;;;;;;;;;;14.40;99.90;;;;;;5034599;28;19929;-72
2023/03/19 11:49:26;;;;;;;;;;;14.40;99.90;;;;;;5018714;27;208619;-74
2023/03/19 11:51:59;;;;;;;;;;;14.10;99.90;;;;;;5088648;28;19928;-74
2023/03/19 11:54:45;;;;;;;;;;;13.80;99.90;;;;;;5023456;28;206815;-74
2023/03/19 11:57:27;;;;;;;;;;;13.80;99.90;;;;;;5062988;28;19928;-73
2023/03/19 12:00:00;;;;;;;;;;;13.60;99.90;;;;;;5045520;28;224061;-73
2023/03/19 12:02:39;;;;;;;;;;;13.60;99.90;;;;;;5079554;28;19924;-72
2023/03/19 12:05:16;;;;;;;;;;;13.50;99.90;;;;;;5001753;28;206785;-75
2023/03/19 12:07:42;;;;;;;;;;;13.30;99.90;;;;;;5060006;28;22046;-75
2023/03/19 12:10:24;;;;;;;;;;;13.30;99.90;;;;;;5002806;28;206874;-75
2023/03/19 12:12:59;;;;;;;;;;;13.30;99.90;;;;;;5075390;28;19943;-75
2023/03/19 12:15:25;;;;;;;;;;;13.30;99.90;;;;;;5008502;28;190136;-75
2023/03/19 12:18:21;;;;;;;;;;;13.30;99.90;;;;;;5081193;28;19920;-76
2023/03/19 12:20:51;;;;;;;;;;;13.20;99.90;;;;;;4988158;28;104445;-76
2023/03/19 12:23:28;;;;;;;;;;;13.20;99.90;;;;;;5083856;28;19928;-76
2023/03/19 12:25:57;;;;;;;;;;;13.30;99.90;;;;;;5016269;28;215472;-75
2023/03/19 12:28:23;;;;;;;;;;;13.30;99.90;;;;;;5060336;28;20344;-75
2023/03/19 12:31:08;;;;;;;;;;;13.40;99.90;;;;;;5023753;28;206416;-75
2023/03/19 12:33:46;;;;;;;;;;;13.60;99.90;;;;;;5063063;28;212646;-75
2023/03/19 12:36:16;;;;;;;;;;;13.70;99.90;;;;;;5012809;28;19932;-75
2023/03/19 12:38:47;;;;;;;;;;;13.80;99.90;;;;;;5026678;28;218590;-75
2023/03/19 12:41:18;;;;;;;;;;;13.90;99.90;;;;;;5062643;28;19931;-75
2023/03/19 12:44:05;;;;;;;;;;;13.70;99.90;;;;;;5022105;28;210704;-75
2023/03/19 12:46:32;;;;;;;;;;;13.70;99.90;;;;;;5049904;28;19935;-75
2023/03/19 12:49:02;;;;;;;;;;;13.50;99.90;;;;;;4998238;28;209864;-73
2023/03/19 12:51:33;;;;;;;;;;;13.40;99.90;;;;;;5011923;28;19931;-74
2023/03/19 12:54:02;;;;;;;;;;;13.40;99.90;;;;;;4998316;28;209521;-76
2023/03/19 12:56:50;;;;;;;;;;;13.30;99.90;;;;;;5048646;28;19960;-76
2023/03/19 12:59:31;;;;;;;;;;;13.10;99.90;;;;;;4984633;28;209156;-75
2023/03/19 13:02:09;;;;;;;;;;;13.10;99.90;;;;;;5069405;28;19929;-74
2023/03/19 13:04:39;;;;;;;;;;;13.20;99.90;;;;;;5006703;28;209933;-75
2023/03/19 13:07:07;;;;;;;;;;;13.20;99.90;;;;;;5057080;28;19951;-75
2023/03/19 13:09:45;;;;;;;;;;;13.50;99.90;;;;;;4984646;28;208225;-75
2023/03/19 13:12:17;;;;;;;;;;;13.80;99.90;;;;;;5042820;28;19924;-75
2023/03/19 13:15:02;;;;;;;;;;;13.90;99.90;;;;;;5007038;28;209825;-75
2023/03/19 13:17:46;;;;;;;;;;;13.80;99.90;;;;;;5059625;28;19939;-74
2023/03/19 13:20:32;;;;;;;;;;;13.80;99.90;;;;;;5012232;28;216480;-74
2023/03/19 13:23:00;;;;;;;;;;;13.60;99.90;;;;;;5065072;28;19939;-74
2023/03/19 13:25:31;;;;;;;;;;;13.50;99.90;;;;;;5020283;28;206857;-75
2023/03/19 13:27:57;;;;;;;;;;;13.60;99.90;;;;;;5059190;28;19936;-75
2023/03/19 13:30:25;;;;;;;;;;;13.50;99.90;;;;;;5006606;28;209488;-74
2023/03/19 13:32:53;;;;;;;;;;;13.60;99.90;;;;;;5058165;28;19920;-75
2023/03/19 13:35:19;;;;;;;;;;;13.50;99.90;;;;;;5006294;28;203096;-75
2023/03/19 13:37:46;;;;;;;;;;;13.50;99.90;;;;;;5059493;28;20340;-75
2023/03/19 13:40:50;;;;;;;;;;;13.60;99.90;;;;;;5011340;28;208348;-75
2023/03/19 13:43:28;;;;;;;;;;;13.70;99.90;;;;;;5063724;28;19924;-74
2023/03/19 13:46:14;;;;;;;;;;;13.70;99.90;;;;;;4964145;28;209151;-74
2023/03/19 13:48:46;;;;;;;;;;;13.50;99.90;;;;;;4976317;28;206982;-73
2023/03/19 13:51:18;;;;;;;;;;;13.40;99.90;;;;;;5025619;28;19926;-74
2023/03/19 13:53:59;;;;;;;;;;;13.20;99.90;;;;;;4942967;28;207022;-75
2023/03/19 13:56:26;;;;;;;;;;;13.00;99.90;;;;;;5035581;28;20883;-78
2023/03/19 13:59:13;;;;;;;;;;;12.90;99.90;;;;;;5002457;28;206109;-74
2023/03/19 14:01:43;;;;;;;;;;;12.80;99.90;;;;;;5028110;28;19920;-74
2023/03/19 14:04:18;;;;;;;;;;;12.80;99.90;;;;;;4958592;28;205702;-74
2023/03/19 14:06:46;;;;;;;;;;;12.90;99.90;;;;;;5006385;28;19928;-74
2023/03/19 14:09:48;;;;;;;;;;;12.70;99.90;;;;;;4940299;28;206963;-74
2023/03/19 14:12:14;;;;;;;;;;;12.70;99.90;;;;;;4953357;28;19933;-74
2023/03/19 14:14:44;;;;;;;;;;;12.80;99.90;;;;;;4905784;28;204242;-73
2023/03/19 14:17:25;;;;;;;;;;;12.90;99.90;;;;;;4977549;28;20319;-73
2023/03/19 14:19:51;;;;;;;;;;;12.80;99.90;;;;;;4915192;28;93488;-73
2023/03/19 14:22:37;;;;;;;;;;;12.60;99.90;;;;;;4968994;28;19925;-74